Main page
METAR-TAF:

METAR-TAF

Airports :

Nordholz Naval Airbase

Nordholz, Germany

latitude: 53-46N, longitude: 008-40E, elevation: 23 m

Current weather observation

The report was made 1 hour and 5 minutes ago, at 00:20 UTC
Wind 5 kt from the East
Temperature 15°C
Humidity 94%
Pressure 1020 hPa
Visibility 10 km or more

METAR: ETMN 250020Z 08005KT 9999 15/14 Q1020 BLU+BLU+

Time: 03:25 (01:25 UTC)

Forecast

The report was made 9 hours and 15 minutes ago, at 16:10 UTC
Forecast valid from 24 at 17 UTC to 25 at 02 UTC
Wind 5 kt from the North/Northeast
Visibility 10 km or more
Clear sky

TAF: ETMN 241610Z 2417/2502 03005KT 9999 NSW SKC

Weather observations and forecasts of more than 4000 airports (METAR and TAF reports).

The available stations are represented by yellow and red dots on the map.

Hover mouse over dot to see the name of the station.

Then click to see weather observations and forecasts.

To change the map : click on the green buttons with a black cross to zoom in, on the green button with a dash to zoom out, or on the green arrows for adjacent maps.


METAR-TAF: